sensor_id;sensor_type;location;lat;lon;timestamp;P1;durP1;ratioP1;P2;durP2;ratioP2
17858;SDS011;35426;30.698;104.050;2022-09-24T00:02:31;30.97;;;17.20;;
17858;SDS011;35426;30.698;104.050;2022-09-24T00:05:10;28.33;;;14.23;;
17858;SDS011;35426;30.698;104.050;2022-09-24T00:07:45;22.17;;;12.63;;
17858;SDS011;35426;30.698;104.050;2022-09-24T00:10:21;33.53;;;14.83;;
17858;SDS011;35426;30.698;104.050;2022-09-24T00:12:55;29.30;;;15.20;;
17858;SDS011;35426;30.698;104.050;2022-09-24T00:15:30;38.33;;;16.60;;
17858;SDS011;35426;30.698;104.050;2022-09-24T00:18:09;31.20;;;13.43;;
17858;SDS011;35426;30.698;104.050;2022-09-24T00:20:44;26.93;;;13.70;;
17858;SDS011;35426;30.698;104.050;2022-09-24T00:23:19;22.60;;;13.10;;
17858;SDS011;35426;30.698;104.050;2022-09-24T00:25:56;28.10;;;12.93;;
17858;SDS011;35426;30.698;104.050;2022-09-24T00:28:48;26.40;;;12.83;;
17858;SDS011;35426;30.698;104.050;2022-09-24T00:31:25;22.27;;;11.87;;
17858;SDS011;35426;30.698;104.050;2022-09-24T00:34:00;23.73;;;12.47;;
17858;SDS011;35426;30.698;104.050;2022-09-24T00:36:35;29.00;;;14.47;;
17858;SDS011;35426;30.698;104.050;2022-09-24T00:39:10;27.97;;;15.07;;
17858;SDS011;35426;30.698;104.050;2022-09-24T00:41:48;29.23;;;15.37;;
17858;SDS011;35426;30.698;104.050;2022-09-24T00:47:52;32.17;;;15.53;;
17858;SDS011;35426;30.698;104.050;2022-09-24T00:50:32;28.53;;;15.13;;
17858;SDS011;35426;30.698;104.050;2022-09-24T00:53:14;24.47;;;13.33;;
17858;SDS011;35426;30.698;104.050;2022-09-24T00:55:58;20.27;;;11.77;;
17858;SDS011;35426;30.698;104.050;2022-09-24T00:58:41;27.20;;;12.43;;
17858;SDS011;35426;30.698;104.050;2022-09-24T01:01:22;19.83;;;10.67;;
17858;SDS011;35426;30.698;104.050;2022-09-24T01:04:04;23.37;;;11.70;;
17858;SDS011;35426;30.698;104.050;2022-09-24T01:06:42;28.60;;;12.87;;
17858;SDS011;35426;30.698;104.050;2022-09-24T01:09:23;24.93;;;11.50;;
17858;SDS011;35426;30.698;104.050;2022-09-24T01:12:08;25.33;;;11.73;;
17858;SDS011;35426;30.698;104.050;2022-09-24T01:15:01;23.17;;;12.33;;
17858;SDS011;35426;30.698;104.050;2022-09-24T01:17:49;23.50;;;12.70;;
17858;SDS011;35426;30.698;104.050;2022-09-24T01:23:52;29.07;;;13.37;;
17858;SDS011;35426;30.698;104.050;2022-09-24T01:26:50;24.10;;;13.50;;
17858;SDS011;35426;30.698;104.050;2022-09-24T01:29:37;24.90;;;13.10;;
17858;SDS011;35426;30.698;104.050;2022-09-24T01:32:30;28.33;;;12.77;;
17858;SDS011;35426;30.698;104.050;2022-09-24T01:35:10;26.30;;;14.73;;
17858;SDS011;35426;30.698;104.050;2022-09-24T01:37:52;26.30;;;14.97;;
17858;SDS011;35426;30.698;104.050;2022-09-24T01:40:32;29.73;;;15.80;;
17858;SDS011;35426;30.698;104.050;2022-09-24T01:43:09;25.10;;;14.07;;
17858;SDS011;35426;30.698;104.050;2022-09-24T01:45:51;25.97;;;14.63;;
17858;SDS011;35426;30.698;104.050;2022-09-24T01:48:36;35.83;;;16.23;;
17858;SDS011;35426;30.698;104.050;2022-09-24T01:51:13;30.27;;;17.23;;
17858;SDS011;35426;30.698;104.050;2022-09-24T01:54:00;30.10;;;17.17;;
17858;SDS011;35426;30.698;104.050;2022-09-24T01:56:40;31.07;;;16.53;;
17858;SDS011;35426;30.698;104.050;2022-09-24T01:59:21;36.40;;;17.23;;
17858;SDS011;35426;30.698;104.050;2022-09-24T02:02:06;29.63;;;16.57;;
17858;SDS011;35426;30.698;104.050;2022-09-24T02:04:45;26.33;;;16.03;;
17858;SDS011;35426;30.698;104.050;2022-09-24T02:07:30;35.07;;;16.60;;
17858;SDS011;35426;30.698;104.050;2022-09-24T02:10:13;32.03;;;16.90;;
17858;SDS011;35426;30.698;104.050;2022-09-24T02:12:55;33.53;;;17.20;;
17858;SDS011;35426;30.698;104.050;2022-09-24T02:15:37;35.00;;;16.23;;
17858;SDS011;35426;30.698;104.050;2022-09-24T02:18:29;24.50;;;14.57;;
17858;SDS011;35426;30.698;104.050;2022-09-24T02:21:28;26.07;;;14.23;;
17858;SDS011;35426;30.698;104.050;2022-09-24T02:24:18;29.27;;;14.73;;
17858;SDS011;35426;30.698;104.050;2022-09-24T02:26:59;25.20;;;15.07;;
17858;SDS011;35426;30.698;104.050;2022-09-24T02:29:40;29.20;;;15.50;;
17858;SDS011;35426;30.698;104.050;2022-09-24T02:32:17;29.40;;;14.80;;
17858;SDS011;35426;30.698;104.050;2022-09-24T02:35:01;27.57;;;15.80;;
17858;SDS011;35426;30.698;104.050;2022-09-24T02:37:40;27.90;;;14.67;;
17858;SDS011;35426;30.698;104.050;2022-09-24T02:40:16;27.53;;;15.70;;
17858;SDS011;35426;30.698;104.050;2022-09-24T02:42:55;35.37;;;17.50;;
17858;SDS011;35426;30.698;104.050;2022-09-24T02:45:31;31.80;;;16.10;;
17858;SDS011;35426;30.698;104.050;2022-09-24T02:48:10;27.23;;;16.50;;
17858;SDS011;35426;30.698;104.050;2022-09-24T02:50:49;33.77;;;16.17;;
17858;SDS011;35426;30.698;104.050;2022-09-24T02:53:25;27.27;;;15.63;;
17858;SDS011;35426;30.698;104.050;2022-09-24T02:55:59;27.37;;;15.87;;
17858;SDS011;35426;30.698;104.050;2022-09-24T02:58:35;29.00;;;15.10;;
17858;SDS011;35426;30.698;104.050;2022-09-24T03:01:12;28.07;;;14.77;;
17858;SDS011;35426;30.698;104.050;2022-09-24T03:03:57;25.33;;;12.83;;
17858;SDS011;35426;30.698;104.050;2022-09-24T03:06:40;24.40;;;13.63;;
17858;SDS011;35426;30.698;104.050;2022-09-24T03:09:15;28.40;;;13.17;;
17858;SDS011;35426;30.698;104.050;2022-09-24T03:11:51;28.83;;;13.05;;
17858;SDS011;35426;30.698;104.050;2022-09-24T03:14:30;21.25;;;11.23;;
17858;SDS011;35426;30.698;104.050;2022-09-24T03:17:05;25.50;;;11.77;;
17858;SDS011;35426;30.698;104.050;2022-09-24T03:19:45;20.35;;;11.43;;
17858;SDS011;35426;30.698;104.050;2022-09-24T03:22:30;25.52;;;11.63;;
17858;SDS011;35426;30.698;104.050;2022-09-24T03:25:05;21.25;;;11.15;;
17858;SDS011;35426;30.698;104.050;2022-09-24T03:27:40;28.27;;;11.50;;
17858;SDS011;35426;30.698;104.050;2022-09-24T03:30:17;24.87;;;11.80;;
17858;SDS011;35426;30.698;104.050;2022-09-24T03:33:09;23.27;;;11.83;;
17858;SDS011;35426;30.698;104.050;2022-09-24T03:35:47;21.30;;;12.03;;
17858;SDS011;35426;30.698;104.050;2022-09-24T03:38:32;24.03;;;11.87;;
17858;SDS011;35426;30.698;104.050;2022-09-24T03:41:10;27.03;;;12.50;;
17858;SDS011;35426;30.698;104.050;2022-09-24T03:43:47;25.40;;;13.30;;
17858;SDS011;35426;30.698;104.050;2022-09-24T03:46:23;28.63;;;12.70;;
17858;SDS011;35426;30.698;104.050;2022-09-24T03:48:59;27.23;;;13.47;;
17858;SDS011;35426;30.698;104.050;2022-09-24T03:51:36;28.03;;;13.90;;
17858;SDS011;35426;30.698;104.050;2022-09-24T03:54:15;33.73;;;12.97;;
17858;SDS011;35426;30.698;104.050;2022-09-24T03:56:51;25.90;;;12.47;;
17858;SDS011;35426;30.698;104.050;2022-09-24T03:59:31;24.17;;;12.03;;
17858;SDS011;35426;30.698;104.050;2022-09-24T04:02:15;25.47;;;12.93;;
17858;SDS011;35426;30.698;104.050;2022-09-24T04:04:59;24.00;;;12.43;;
17858;SDS011;35426;30.698;104.050;2022-09-24T04:07:35;28.07;;;11.90;;
17858;SDS011;35426;30.698;104.050;2022-09-24T04:10:19;22.00;;;11.67;;
17858;SDS011;35426;30.698;104.050;2022-09-24T04:12:55;20.87;;;11.20;;
17858;SDS011;35426;30.698;104.050;2022-09-24T04:15:36;21.10;;;10.97;;
17858;SDS011;35426;30.698;104.050;2022-09-24T04:18:11;24.53;;;12.47;;
17858;SDS011;35426;30.698;104.050;2022-09-24T04:20:59;25.00;;;12.87;;
17858;SDS011;35426;30.698;104.050;2022-09-24T04:23:37;24.20;;;11.60;;
17858;SDS011;35426;30.698;104.050;2022-09-24T04:26:24;22.77;;;11.27;;
17858;SDS011;35426;30.698;104.050;2022-09-24T04:29:02;24.37;;;13.10;;
17858;SDS011;35426;30.698;104.050;2022-09-24T04:32:02;25.10;;;12.77;;
17858;SDS011;35426;30.698;104.050;2022-09-24T04:34:37;25.30;;;13.63;;
17858;SDS011;35426;30.698;104.050;2022-09-24T04:37:12;29.47;;;14.33;;
17858;SDS011;35426;30.698;104.050;2022-09-24T04:39:53;29.27;;;13.53;;
17858;SDS011;35426;30.698;104.050;2022-09-24T04:42:30;27.43;;;13.97;;
17858;SDS011;35426;30.698;104.050;2022-09-24T04:45:09;26.17;;;13.43;;
17858;SDS011;35426;30.698;104.050;2022-09-24T04:47:49;21.57;;;12.93;;
17858;SDS011;35426;30.698;104.050;2022-09-24T04:50:29;26.87;;;14.30;;
17858;SDS011;35426;30.698;104.050;2022-09-24T04:53:19;28.17;;;13.63;;
17858;SDS011;35426;30.698;104.050;2022-09-24T04:55:56;28.20;;;14.03;;
17858;SDS011;35426;30.698;104.050;2022-09-24T04:58:39;25.33;;;14.70;;
17858;SDS011;35426;30.698;104.050;2022-09-24T05:01:16;28.23;;;13.73;;
17858;SDS011;35426;30.698;104.050;2022-09-24T05:03:50;30.20;;;15.27;;
17858;SDS011;35426;30.698;104.050;2022-09-24T05:06:25;30.17;;;16.30;;
17858;SDS011;35426;30.698;104.050;2022-09-24T05:09:07;29.83;;;15.37;;
17858;SDS011;35426;30.698;104.050;2022-09-24T05:11:42;30.20;;;14.27;;
17858;SDS011;35426;30.698;104.050;2022-09-24T05:14:26;30.43;;;16.57;;
17858;SDS011;35426;30.698;104.050;2022-09-24T05:17:01;43.53;;;17.13;;
17858;SDS011;35426;30.698;104.050;2022-09-24T05:19:36;31.77;;;16.17;;
17858;SDS011;35426;30.698;104.050;2022-09-24T05:22:14;36.40;;;18.67;;
17858;SDS011;35426;30.698;104.050;2022-09-24T05:24:48;30.70;;;18.73;;
17858;SDS011;35426;30.698;104.050;2022-09-24T05:27:30;31.67;;;18.00;;
17858;SDS011;35426;30.698;104.050;2022-09-24T05:30:07;33.90;;;17.60;;
17858;SDS011;35426;30.698;104.050;2022-09-24T05:32:57;35.43;;;18.50;;
17858;SDS011;35426;30.698;104.050;2022-09-24T05:35:32;38.03;;;19.50;;
17858;SDS011;35426;30.698;104.050;2022-09-24T05:38:08;30.87;;;18.80;;
17858;SDS011;35426;30.698;104.050;2022-09-24T05:40:46;31.93;;;18.87;;
17858;SDS011;35426;30.698;104.050;2022-09-24T05:43:31;33.07;;;18.23;;
17858;SDS011;35426;30.698;104.050;2022-09-24T05:46:06;34.00;;;19.50;;
17858;SDS011;35426;30.698;104.050;2022-09-24T05:48:42;32.03;;;20.00;;
17858;SDS011;35426;30.698;104.050;2022-09-24T05:51:25;36.67;;;20.90;;
17858;SDS011;35426;30.698;104.050;2022-09-24T05:54:03;37.80;;;20.67;;
17858;SDS011;35426;30.698;104.050;2022-09-24T05:56:39;34.03;;;19.67;;
17858;SDS011;35426;30.698;104.050;2022-09-24T05:59:23;31.43;;;18.23;;
17858;SDS011;35426;30.698;104.050;2022-09-24T06:02:02;38.13;;;19.20;;
17858;SDS011;35426;30.698;104.050;2022-09-24T06:04:44;34.13;;;19.03;;
17858;SDS011;35426;30.698;104.050;2022-09-24T06:07:23;32.40;;;18.87;;
17858;SDS011;35426;30.698;104.050;2022-09-24T06:10:04;31.50;;;18.37;;
17858;SDS011;35426;30.698;104.050;2022-09-24T06:12:51;30.73;;;17.60;;
17858;SDS011;35426;30.698;104.050;2022-09-24T06:15:30;30.83;;;17.60;;
17858;SDS011;35426;30.698;104.050;2022-09-24T06:18:14;30.73;;;18.00;;
17858;SDS011;35426;30.698;104.050;2022-09-24T06:20:55;28.70;;;16.73;;
17858;SDS011;35426;30.698;104.050;2022-09-24T06:23:37;29.33;;;17.73;;
17858;SDS011;35426;30.698;104.050;2022-09-24T06:26:22;28.33;;;17.00;;
17858;SDS011;35426;30.698;104.050;2022-09-24T06:28:57;26.93;;;16.07;;
17858;SDS011;35426;30.698;104.050;2022-09-24T06:31:32;31.93;;;16.23;;
17858;SDS011;35426;30.698;104.050;2022-09-24T06:34:13;26.67;;;16.33;;
17858;SDS011;35426;30.698;104.050;2022-09-24T06:36:48;31.50;;;16.57;;
17858;SDS011;35426;30.698;104.050;2022-09-24T06:39:28;29.30;;;17.17;;
17858;SDS011;35426;30.698;104.050;2022-09-24T06:42:07;27.63;;;15.80;;
17858;SDS011;35426;30.698;104.050;2022-09-24T06:44:48;29.87;;;15.37;;
17858;SDS011;35426;30.698;104.050;2022-09-24T06:47:23;28.70;;;17.70;;
17858;SDS011;35426;30.698;104.050;2022-09-24T06:50:05;29.73;;;16.80;;
17858;SDS011;35426;30.698;104.050;2022-09-24T06:52:44;26.33;;;15.17;;
17858;SDS011;35426;30.698;104.050;2022-09-24T06:55:22;29.53;;;16.17;;
17858;SDS011;35426;30.698;104.050;2022-09-24T06:58:02;26.90;;;16.17;;
17858;SDS011;35426;30.698;104.050;2022-09-24T07:00:38;24.53;;;16.73;;
17858;SDS011;35426;30.698;104.050;2022-09-24T07:03:21;30.87;;;17.80;;
17858;SDS011;35426;30.698;104.050;2022-09-24T07:06:04;34.40;;;17.00;;
17858;SDS011;35426;30.698;104.050;2022-09-24T07:08:48;31.57;;;18.50;;
17858;SDS011;35426;30.698;104.050;2022-09-24T07:11:26;33.90;;;18.80;;
17858;SDS011;35426;30.698;104.050;2022-09-24T07:14:05;32.97;;;18.57;;
17858;SDS011;35426;30.698;104.050;2022-09-24T07:16:46;31.17;;;17.53;;
17858;SDS011;35426;30.698;104.050;2022-09-24T07:19:22;30.03;;;17.50;;
17858;SDS011;35426;30.698;104.050;2022-09-24T07:22:10;32.37;;;18.17;;
17858;SDS011;35426;30.698;104.050;2022-09-24T07:24:51;34.93;;;18.50;;
17858;SDS011;35426;30.698;104.050;2022-09-24T07:27:32;29.37;;;15.43;;
17858;SDS011;35426;30.698;104.050;2022-09-24T07:30:11;29.93;;;17.10;;
17858;SDS011;35426;30.698;104.050;2022-09-24T07:32:46;30.23;;;18.23;;
17858;SDS011;35426;30.698;104.050;2022-09-24T07:35:36;35.17;;;19.10;;
17858;SDS011;35426;30.698;104.050;2022-09-24T07:41:15;33.53;;;19.03;;
17858;SDS011;35426;30.698;104.050;2022-09-24T07:43:56;29.77;;;18.23;;
17858;SDS011;35426;30.698;104.050;2022-09-24T07:46:33;33.50;;;20.03;;
17858;SDS011;35426;30.698;104.050;2022-09-24T07:49:09;37.00;;;21.40;;
17858;SDS011;35426;30.698;104.050;2022-09-24T07:51:47;37.53;;;20.43;;
17858;SDS011;35426;30.698;104.050;2022-09-24T07:54:29;34.53;;;20.33;;
17858;SDS011;35426;30.698;104.050;2022-09-24T07:57:12;35.37;;;20.97;;
17858;SDS011;35426;30.698;104.050;2022-09-24T07:59:50;38.80;;;20.90;;
17858;SDS011;35426;30.698;104.050;2022-09-24T08:02:25;36.53;;;20.33;;
17858;SDS011;35426;30.698;104.050;2022-09-24T08:05:03;42.23;;;21.80;;
17858;SDS011;35426;30.698;104.050;2022-09-24T08:07:50;39.07;;;19.87;;
17858;SDS011;35426;30.698;104.050;2022-09-24T08:10:29;36.40;;;21.17;;
17858;SDS011;35426;30.698;104.050;2022-09-24T08:13:07;40.57;;;21.70;;
17858;SDS011;35426;30.698;104.050;2022-09-24T08:15:45;33.30;;;20.33;;
17858;SDS011;35426;30.698;104.050;2022-09-24T08:18:28;39.90;;;20.57;;
17858;SDS011;35426;30.698;104.050;2022-09-24T08:21:05;36.90;;;21.30;;
17858;SDS011;35426;30.698;104.050;2022-09-24T08:23:42;35.47;;;19.90;;
17858;SDS011;35426;30.698;104.050;2022-09-24T08:26:22;33.40;;;20.77;;
17858;SDS011;35426;30.698;104.050;2022-09-24T08:28:56;45.83;;;21.30;;
17858;SDS011;35426;30.698;104.050;2022-09-24T08:31:32;37.40;;;20.47;;
17858;SDS011;35426;30.698;104.050;2022-09-24T08:34:06;36.20;;;19.40;;
17858;SDS011;35426;30.698;104.050;2022-09-24T08:36:48;41.17;;;21.77;;
17858;SDS011;35426;30.698;104.050;2022-09-24T08:39:22;40.47;;;21.30;;
17858;SDS011;35426;30.698;104.050;2022-09-24T08:42:10;38.50;;;19.63;;
17858;SDS011;35426;30.698;104.050;2022-09-24T08:44:53;37.57;;;20.80;;
17858;SDS011;35426;30.698;104.050;2022-09-24T08:47:47;37.37;;;19.93;;
17858;SDS011;35426;30.698;104.050;2022-09-24T08:50:25;37.93;;;19.30;;
17858;SDS011;35426;30.698;104.050;2022-09-24T08:53:13;40.60;;;19.17;;
17858;SDS011;35426;30.698;104.050;2022-09-24T08:55:55;41.73;;;19.87;;
17858;SDS011;35426;30.698;104.050;2022-09-24T08:58:47;40.93;;;19.87;;
17858;SDS011;35426;30.698;104.050;2022-09-24T09:01:32;45.03;;;21.57;;
17858;SDS011;35426;30.698;104.050;2022-09-24T09:04:20;38.43;;;21.07;;
17858;SDS011;35426;30.698;104.050;2022-09-24T09:07:12;39.90;;;21.80;;
17858;SDS011;35426;30.698;104.050;2022-09-24T09:09:51;36.07;;;20.50;;
17858;SDS011;35426;30.698;104.050;2022-09-24T09:12:33;47.63;;;22.17;;
17858;SDS011;35426;30.698;104.050;2022-09-24T09:15:19;42.67;;;21.07;;
17858;SDS011;35426;30.698;104.050;2022-09-24T09:17:57;40.43;;;22.03;;
17858;SDS011;35426;30.698;104.050;2022-09-24T09:20:37;39.20;;;20.90;;
17858;SDS011;35426;30.698;104.050;2022-09-24T09:23:15;42.60;;;21.20;;
17858;SDS011;35426;30.698;104.050;2022-09-24T09:25:53;40.47;;;21.43;;
17858;SDS011;35426;30.698;104.050;2022-09-24T09:28:35;41.67;;;20.50;;
17858;SDS011;35426;30.698;104.050;2022-09-24T09:31:23;40.07;;;20.63;;
17858;SDS011;35426;30.698;104.050;2022-09-24T09:34:12;44.97;;;20.20;;
17858;SDS011;35426;30.698;104.050;2022-09-24T09:37:05;40.63;;;20.33;;
17858;SDS011;35426;30.698;104.050;2022-09-24T09:39:53;38.07;;;19.87;;
17858;SDS011;35426;30.698;104.050;2022-09-24T09:42:42;42.47;;;21.50;;
17858;SDS011;35426;30.698;104.050;2022-09-24T09:45:23;42.60;;;21.70;;
17858;SDS011;35426;30.698;104.050;2022-09-24T09:48:03;43.97;;;21.77;;
17858;SDS011;35426;30.698;104.050;2022-09-24T09:50:42;43.13;;;21.07;;
17858;SDS011;35426;30.698;104.050;2022-09-24T09:53:23;42.00;;;20.63;;
17858;SDS011;35426;30.698;104.050;2022-09-24T09:56:02;49.10;;;23.07;;
17858;SDS011;35426;30.698;104.050;2022-09-24T09:58:42;41.13;;;22.00;;
17858;SDS011;35426;30.698;104.050;2022-09-24T10:01:32;47.30;;;23.37;;
17858;SDS011;35426;30.698;104.050;2022-09-24T10:07:11;57.47;;;24.83;;
17858;SDS011;35426;30.698;104.050;2022-09-24T10:10:01;44.37;;;23.50;;
17858;SDS011;35426;30.698;104.050;2022-09-24T10:13:05;48.80;;;23.83;;
17858;SDS011;35426;30.698;104.050;2022-09-24T10:15:47;42.00;;;22.77;;
17858;SDS011;35426;30.698;104.050;2022-09-24T10:18:25;51.43;;;23.43;;
17858;SDS011;35426;30.698;104.050;2022-09-24T10:21:07;49.43;;;22.27;;
17858;SDS011;35426;30.698;104.050;2022-09-24T10:23:45;41.40;;;22.07;;
17858;SDS011;35426;30.698;104.050;2022-09-24T10:26:32;42.67;;;21.60;;
17858;SDS011;35426;30.698;104.050;2022-09-24T10:29:13;42.67;;;21.60;;
17858;SDS011;35426;30.698;104.050;2022-09-24T10:32:05;52.77;;;23.93;;
17858;SDS011;35426;30.698;104.050;2022-09-24T10:34:54;46.37;;;23.30;;
17858;SDS011;35426;30.698;104.050;2022-09-24T10:37:34;50.97;;;26.07;;
17858;SDS011;35426;30.698;104.050;2022-09-24T10:40:18;50.73;;;29.23;;
17858;SDS011;35426;30.698;104.050;2022-09-24T10:42:57;50.23;;;25.50;;
17858;SDS011;35426;30.698;104.050;2022-09-24T10:45:51;64.50;;;29.97;;
17858;SDS011;35426;30.698;104.050;2022-09-24T10:48:42;53.60;;;24.57;;
17858;SDS011;35426;30.698;104.050;2022-09-24T10:51:29;47.40;;;23.20;;
17858;SDS011;35426;30.698;104.050;2022-09-24T10:57:19;45.63;;;23.17;;
17858;SDS011;35426;30.698;104.050;2022-09-24T11:00:06;41.87;;;22.93;;
17858;SDS011;35426;30.698;104.050;2022-09-24T11:03:00;46.43;;;22.07;;
17858;SDS011;35426;30.698;104.050;2022-09-24T11:05:51;44.23;;;22.27;;
17858;SDS011;35426;30.698;104.050;2022-09-24T11:08:36;48.73;;;20.53;;
17858;SDS011;35426;30.698;104.050;2022-09-24T11:11:38;46.07;;;21.83;;
17858;SDS011;35426;30.698;104.050;2022-09-24T11:14:28;47.63;;;21.20;;
17858;SDS011;35426;30.698;104.050;2022-09-24T11:20:20;44.73;;;22.03;;
17858;SDS011;35426;30.698;104.050;2022-09-24T11:26:04;40.57;;;20.80;;
17858;SDS011;35426;30.698;104.050;2022-09-24T11:29:01;48.63;;;22.70;;
17858;SDS011;35426;30.698;104.050;2022-09-24T11:31:49;43.27;;;20.90;;
17858;SDS011;35426;30.698;104.050;2022-09-24T11:34:54;41.57;;;20.70;;
17858;SDS011;35426;30.698;104.050;2022-09-24T11:37:56;43.97;;;21.27;;
17858;SDS011;35426;30.698;104.050;2022-09-24T11:40:49;46.00;;;23.03;;
17858;SDS011;35426;30.698;104.050;2022-09-24T11:44:08;46.80;;;21.80;;
17858;SDS011;35426;30.698;104.050;2022-09-24T11:47:13;49.33;;;23.07;;
17858;SDS011;35426;30.698;104.050;2022-09-24T11:50:05;45.80;;;22.43;;
17858;SDS011;35426;30.698;104.050;2022-09-24T11:52:53;47.73;;;22.57;;
17858;SDS011;35426;30.698;104.050;2022-09-24T11:55:41;52.07;;;24.23;;
17858;SDS011;35426;30.698;104.050;2022-09-24T12:01:25;50.90;;;24.50;;
17858;SDS011;35426;30.698;104.050;2022-09-24T12:04:01;47.40;;;23.33;;
17858;SDS011;35426;30.698;104.050;2022-09-24T12:06:44;48.63;;;24.73;;
17858;SDS011;35426;30.698;104.050;2022-09-24T12:09:28;47.80;;;23.83;;
17858;SDS011;35426;30.698;104.050;2022-09-24T12:12:08;50.47;;;24.77;;
17858;SDS011;35426;30.698;104.050;2022-09-24T12:14:46;44.53;;;23.90;;
17858;SDS011;35426;30.698;104.050;2022-09-24T12:17:30;54.23;;;24.93;;
17858;SDS011;35426;30.698;104.050;2022-09-24T12:20:12;51.67;;;24.67;;
17858;SDS011;35426;30.698;104.050;2022-09-24T12:22:52;48.37;;;25.27;;
17858;SDS011;35426;30.698;104.050;2022-09-24T12:25:35;53.07;;;26.63;;
17858;SDS011;35426;30.698;104.050;2022-09-24T12:28:22;57.03;;;26.23;;
17858;SDS011;35426;30.698;104.050;2022-09-24T12:31:21;58.00;;;26.03;;
17858;SDS011;35426;30.698;104.050;2022-09-24T12:34:28;58.70;;;26.90;;
17858;SDS011;35426;30.698;104.050;2022-09-24T12:37:21;50.03;;;27.20;;
17858;SDS011;35426;30.698;104.050;2022-09-24T12:40:05;54.60;;;27.30;;
17858;SDS011;35426;30.698;104.050;2022-09-24T12:42:54;61.67;;;28.73;;
17858;SDS011;35426;30.698;104.050;2022-09-24T12:45:38;41.93;;;20.60;;
17858;SDS011;35426;30.698;104.050;2022-09-24T12:48:13;44.40;;;20.47;;
17858;SDS011;35426;30.698;104.050;2022-09-24T12:51:04;38.10;;;20.03;;
17858;SDS011;35426;30.698;104.050;2022-09-24T12:53:53;45.37;;;22.63;;
17858;SDS011;35426;30.698;104.050;2022-09-24T12:57:05;34.00;;;17.23;;
17858;SDS011;35426;30.698;104.050;2022-09-24T12:59:48;41.23;;;18.50;;
17858;SDS011;35426;30.698;104.050;2022-09-24T13:02:26;36.67;;;19.27;;
17858;SDS011;35426;30.698;104.050;2022-09-24T13:05:13;31.53;;;16.67;;
17858;SDS011;35426;30.698;104.050;2022-09-24T13:08:21;37.23;;;17.80;;
17858;SDS011;35426;30.698;104.050;2022-09-24T13:10:59;35.30;;;16.40;;
17858;SDS011;35426;30.698;104.050;2022-09-24T13:13:46;30.10;;;15.97;;
17858;SDS011;35426;30.698;104.050;2022-09-24T13:16:36;39.97;;;16.63;;
17858;SDS011;35426;30.698;104.050;2022-09-24T13:19:32;28.60;;;15.20;;
17858;SDS011;35426;30.698;104.050;2022-09-24T13:22:20;32.40;;;15.57;;
17858;SDS011;35426;30.698;104.050;2022-09-24T13:28:18;31.10;;;14.80;;
17858;SDS011;35426;30.698;104.050;2022-09-24T13:31:13;33.30;;;15.33;;
17858;SDS011;35426;30.698;104.050;2022-09-24T14:01:50;30.07;;;13.70;;
17858;SDS011;35426;30.698;104.050;2022-09-24T14:04:33;26.13;;;14.40;;
17858;SDS011;35426;30.698;104.050;2022-09-24T14:07:20;28.17;;;14.07;;
17858;SDS011;35426;30.698;104.050;2022-09-24T14:10:04;24.07;;;13.70;;
17858;SDS011;35426;30.698;104.050;2022-09-24T14:19:02;30.40;;;14.77;;
17858;SDS011;35426;30.698;104.050;2022-09-24T14:21:48;28.57;;;14.13;;
17858;SDS011;35426;30.698;104.050;2022-09-24T14:24:24;25.77;;;13.47;;
17858;SDS011;35426;30.698;104.050;2022-09-24T14:27:02;31.17;;;13.60;;
17858;SDS011;35426;30.698;104.050;2022-09-24T14:29:41;25.73;;;13.30;;
17858;SDS011;35426;30.698;104.050;2022-09-24T14:32:21;28.53;;;14.17;;
17858;SDS011;35426;30.698;104.050;2022-09-24T14:35:04;24.57;;;13.47;;
17858;SDS011;35426;30.698;104.050;2022-09-24T14:37:57;24.47;;;12.70;;
17858;SDS011;35426;30.698;104.050;2022-09-24T14:40:40;29.27;;;13.30;;
17858;SDS011;35426;30.698;104.050;2022-09-24T14:43:19;29.30;;;13.10;;
17858;SDS011;35426;30.698;104.050;2022-09-24T14:46:06;24.40;;;12.77;;
17858;SDS011;35426;30.698;104.050;2022-09-24T14:49:15;25.53;;;13.13;;
17858;SDS011;35426;30.698;104.050;2022-09-24T14:51:59;25.47;;;13.83;;
17858;SDS011;35426;30.698;104.050;2022-09-24T14:54:59;26.13;;;12.53;;
17858;SDS011;35426;30.698;104.050;2022-09-24T14:57:56;26.70;;;13.47;;
17858;SDS011;35426;30.698;104.050;2022-09-24T15:00:33;25.53;;;13.03;;
17858;SDS011;35426;30.698;104.050;2022-09-24T15:03:20;25.33;;;12.73;;
17858;SDS011;35426;30.698;104.050;2022-09-24T15:06:12;28.33;;;14.37;;
17858;SDS011;35426;30.698;104.050;2022-09-24T15:08:56;33.50;;;13.53;;
17858;SDS011;35426;30.698;104.050;2022-09-24T15:11:32;29.17;;;14.13;;
17858;SDS011;35426;30.698;104.050;2022-09-24T15:14:12;28.83;;;14.10;;
17858;SDS011;35426;30.698;104.050;2022-09-24T15:17:06;26.73;;;12.47;;
17858;SDS011;35426;30.698;104.050;2022-09-24T15:19:41;30.17;;;16.87;;
17858;SDS011;35426;30.698;104.050;2022-09-24T15:22:21;27.47;;;13.67;;
17858;SDS011;35426;30.698;104.050;2022-09-24T15:25:00;30.57;;;14.13;;
17858;SDS011;35426;30.698;104.050;2022-09-24T15:27:43;25.67;;;13.63;;
17858;SDS011;35426;30.698;104.050;2022-09-24T15:30:25;25.53;;;13.30;;
17858;SDS011;35426;30.698;104.050;2022-09-24T15:33:03;25.50;;;13.30;;
17858;SDS011;35426;30.698;104.050;2022-09-24T15:35:42;26.20;;;12.70;;
17858;SDS011;35426;30.698;104.050;2022-09-24T15:38:31;30.80;;;14.47;;
17858;SDS011;35426;30.698;104.050;2022-09-24T15:41:26;30.93;;;14.30;;
17858;SDS011;35426;30.698;104.050;2022-09-24T15:44:04;30.73;;;14.27;;
17858;SDS011;35426;30.698;104.050;2022-09-24T15:46:47;31.53;;;14.90;;
17858;SDS011;35426;30.698;104.050;2022-09-24T15:49:23;32.50;;;14.97;;
17858;SDS011;35426;30.698;104.050;2022-09-24T15:52:05;33.97;;;17.53;;
17858;SDS011;35426;30.698;104.050;2022-09-24T15:54:57;37.00;;;19.17;;
17858;SDS011;35426;30.698;104.050;2022-09-24T15:57:46;37.77;;;20.63;;
17858;SDS011;35426;30.698;104.050;2022-09-24T16:00:28;36.70;;;20.00;;
17858;SDS011;35426;30.698;104.050;2022-09-24T16:03:04;39.57;;;21.63;;
17858;SDS011;35426;30.698;104.050;2022-09-24T16:05:54;43.80;;;23.10;;
17858;SDS011;35426;30.698;104.050;2022-09-24T16:08:36;50.07;;;23.97;;
17858;SDS011;35426;30.698;104.050;2022-09-24T16:11:24;45.63;;;22.80;;
17858;SDS011;35426;30.698;104.050;2022-09-24T16:13:58;46.67;;;22.30;;
17858;SDS011;35426;30.698;104.050;2022-09-24T16:16:41;39.47;;;22.47;;
17858;SDS011;35426;30.698;104.050;2022-09-24T16:19:22;39.73;;;22.57;;
17858;SDS011;35426;30.698;104.050;2022-09-24T16:22:01;41.27;;;23.20;;
17858;SDS011;35426;30.698;104.050;2022-09-24T16:24:38;39.17;;;23.53;;
17858;SDS011;35426;30.698;104.050;2022-09-24T16:27:19;47.00;;;24.80;;